sensor_id;sensor_type;location;lat;lon;timestamp;P1;durP1;ratioP1;P2;durP2;ratioP2
2111;SDS011;1062;52.538;13.400;2023-02-15T00:01:51;26.00;;;15.10;;
2111;SDS011;1062;52.538;13.400;2023-02-15T00:04:18;27.10;;;15.80;;
2111;SDS011;1062;52.538;13.400;2023-02-15T00:06:46;24.70;;;12.80;;
2111;SDS011;1062;52.538;13.400;2023-02-15T00:09:12;30.67;;;15.33;;
2111;SDS011;1062;52.538;13.400;2023-02-15T00:11:38;23.87;;;15.83;;
2111;SDS011;1062;52.538;13.400;2023-02-15T00:16:48;27.57;;;15.00;;
2111;SDS011;1062;52.538;13.400;2023-02-15T00:19:16;23.03;;;14.97;;
2111;SDS011;1062;52.538;13.400;2023-02-15T00:21:43;27.80;;;16.17;;
2111;SDS011;1062;52.538;13.400;2023-02-15T00:24:10;25.70;;;16.07;;
2111;SDS011;1062;52.538;13.400;2023-02-15T00:26:38;29.87;;;16.03;;
2111;SDS011;1062;52.538;13.400;2023-02-15T00:29:05;26.23;;;15.60;;
2111;SDS011;1062;52.538;13.400;2023-02-15T00:31:31;34.93;;;15.40;;
2111;SDS011;1062;52.538;13.400;2023-02-15T00:34:05;28.67;;;16.77;;
2111;SDS011;1062;52.538;13.400;2023-02-15T00:36:38;33.00;;;17.97;;
2111;SDS011;1062;52.538;13.400;2023-02-15T00:39:04;29.83;;;17.57;;
2111;SDS011;1062;52.538;13.400;2023-02-15T00:41:31;32.67;;;17.03;;
2111;SDS011;1062;52.538;13.400;2023-02-15T00:43:57;27.83;;;15.97;;
2111;SDS011;1062;52.538;13.400;2023-02-15T00:46:22;28.07;;;15.70;;
2111;SDS011;1062;52.538;13.400;2023-02-15T00:48:48;39.10;;;17.87;;
2111;SDS011;1062;52.538;13.400;2023-02-15T00:51:14;31.43;;;18.60;;
2111;SDS011;1062;52.538;13.400;2023-02-15T00:53:40;31.57;;;15.17;;
2111;SDS011;1062;52.538;13.400;2023-02-15T00:56:05;33.90;;;17.50;;
2111;SDS011;1062;52.538;13.400;2023-02-15T00:58:31;44.20;;;19.63;;
2111;SDS011;1062;52.538;13.400;2023-02-15T01:01:02;26.60;;;15.47;;
2111;SDS011;1062;52.538;13.400;2023-02-15T01:03:30;31.80;;;17.17;;
2111;SDS011;1062;52.538;13.400;2023-02-15T01:05:56;34.60;;;18.40;;
2111;SDS011;1062;52.538;13.400;2023-02-15T01:08:21;26.70;;;15.60;;
2111;SDS011;1062;52.538;13.400;2023-02-15T01:10:47;29.90;;;17.03;;
2111;SDS011;1062;52.538;13.400;2023-02-15T01:13:14;29.30;;;17.33;;
2111;SDS011;1062;52.538;13.400;2023-02-15T01:15:41;34.23;;;18.20;;
2111;SDS011;1062;52.538;13.400;2023-02-15T01:18:07;29.70;;;15.80;;
2111;SDS011;1062;52.538;13.400;2023-02-15T01:20:34;36.43;;;20.77;;
2111;SDS011;1062;52.538;13.400;2023-02-15T01:23:01;37.00;;;18.77;;
2111;SDS011;1062;52.538;13.400;2023-02-15T01:25:27;31.57;;;17.33;;
2111;SDS011;1062;52.538;13.400;2023-02-15T01:27:53;28.77;;;16.47;;
2111;SDS011;1062;52.538;13.400;2023-02-15T01:30:19;31.73;;;18.30;;
2111;SDS011;1062;52.538;13.400;2023-02-15T01:32:44;30.27;;;17.20;;
2111;SDS011;1062;52.538;13.400;2023-02-15T01:35:10;41.83;;;18.87;;
2111;SDS011;1062;52.538;13.400;2023-02-15T01:37:36;36.23;;;19.17;;
2111;SDS011;1062;52.538;13.400;2023-02-15T01:40:03;32.70;;;18.70;;
2111;SDS011;1062;52.538;13.400;2023-02-15T01:42:32;35.20;;;18.03;;
2111;SDS011;1062;52.538;13.400;2023-02-15T01:44:59;30.43;;;16.53;;
2111;SDS011;1062;52.538;13.400;2023-02-15T01:52:55;32.93;;;18.40;;
2111;SDS011;1062;52.538;13.400;2023-02-15T01:55:23;32.37;;;16.97;;
2111;SDS011;1062;52.538;13.400;2023-02-15T01:57:52;34.53;;;18.97;;
2111;SDS011;1062;52.538;13.400;2023-02-15T02:00:18;35.57;;;19.33;;
2111;SDS011;1062;52.538;13.400;2023-02-15T02:02:45;33.43;;;17.83;;
2111;SDS011;1062;52.538;13.400;2023-02-15T02:05:37;35.30;;;18.40;;
2111;SDS011;1062;52.538;13.400;2023-02-15T02:08:04;36.20;;;19.63;;
2111;SDS011;1062;52.538;13.400;2023-02-15T02:10:31;34.73;;;17.87;;
2111;SDS011;1062;52.538;13.400;2023-02-15T02:12:58;38.10;;;19.30;;
2111;SDS011;1062;52.538;13.400;2023-02-15T02:16:10;41.60;;;21.00;;
2111;SDS011;1062;52.538;13.400;2023-02-15T02:23:43;33.87;;;18.83;;
2111;SDS011;1062;52.538;13.400;2023-02-15T02:26:34;43.93;;;19.97;;
2111;SDS011;1062;52.538;13.400;2023-02-15T02:38:08;38.50;;;21.20;;
2111;SDS011;1062;52.538;13.400;2023-02-15T02:40:41;37.07;;;16.70;;
2111;SDS011;1062;52.538;13.400;2023-02-15T02:43:33;42.47;;;21.67;;
2111;SDS011;1062;52.538;13.400;2023-02-15T02:46:07;40.70;;;21.60;;
2111;SDS011;1062;52.538;13.400;2023-02-15T02:48:39;39.20;;;22.17;;
2111;SDS011;1062;52.538;13.400;2023-02-15T02:51:05;45.37;;;20.00;;
2111;SDS011;1062;52.538;13.400;2023-02-15T02:53:31;36.47;;;17.60;;
2111;SDS011;1062;52.538;13.400;2023-02-15T02:55:59;37.73;;;20.93;;
2111;SDS011;1062;52.538;13.400;2023-02-15T02:58:29;40.20;;;19.27;;
2111;SDS011;1062;52.538;13.400;2023-02-15T03:01:17;48.33;;;22.83;;
2111;SDS011;1062;52.538;13.400;2023-02-15T03:03:52;48.67;;;22.70;;
2111;SDS011;1062;52.538;13.400;2023-02-15T03:06:30;44.80;;;21.90;;
2111;SDS011;1062;52.538;13.400;2023-02-15T03:09:01;54.03;;;25.03;;
2111;SDS011;1062;52.538;13.400;2023-02-15T03:11:33;42.83;;;22.80;;
2111;SDS011;1062;52.538;13.400;2023-02-15T03:13:59;45.07;;;20.67;;
2111;SDS011;1062;52.538;13.400;2023-02-15T03:16:25;45.80;;;23.47;;
2111;SDS011;1062;52.538;13.400;2023-02-15T03:18:59;50.53;;;22.77;;
2111;SDS011;1062;52.538;13.400;2023-02-15T03:21:35;57.50;;;23.70;;
2111;SDS011;1062;52.538;13.400;2023-02-15T03:24:04;58.83;;;25.30;;
2111;SDS011;1062;52.538;13.400;2023-02-15T03:26:36;60.53;;;23.80;;
2111;SDS011;1062;52.538;13.400;2023-02-15T03:29:07;54.70;;;24.30;;
2111;SDS011;1062;52.538;13.400;2023-02-15T03:31:37;60.73;;;24.47;;
2111;SDS011;1062;52.538;13.400;2023-02-15T03:34:07;62.50;;;25.97;;
2111;SDS011;1062;52.538;13.400;2023-02-15T03:37:19;56.73;;;23.80;;
2111;SDS011;1062;52.538;13.400;2023-02-15T03:39:45;49.03;;;23.83;;
2111;SDS011;1062;52.538;13.400;2023-02-15T03:42:26;46.93;;;22.63;;
2111;SDS011;1062;52.538;13.400;2023-02-15T03:44:58;48.67;;;24.10;;
2111;SDS011;1062;52.538;13.400;2023-02-15T03:47:32;46.40;;;24.57;;
2111;SDS011;1062;52.538;13.400;2023-02-15T03:50:02;46.07;;;22.27;;
2111;SDS011;1062;52.538;13.400;2023-02-15T03:52:55;54.97;;;25.77;;
2111;SDS011;1062;52.538;13.400;2023-02-15T03:55:23;50.00;;;27.13;;
2111;SDS011;1062;52.538;13.400;2023-02-15T03:57:49;48.70;;;23.93;;
2111;SDS011;1062;52.538;13.400;2023-02-15T04:00:35;48.10;;;21.50;;
2111;SDS011;1062;52.538;13.400;2023-02-15T04:05:52;53.97;;;23.20;;
2111;SDS011;1062;52.538;13.400;2023-02-15T04:08:18;59.43;;;23.83;;
2111;SDS011;1062;52.538;13.400;2023-02-15T04:10:43;57.10;;;27.57;;
2111;SDS011;1062;52.538;13.400;2023-02-15T04:13:22;59.97;;;24.90;;
2111;SDS011;1062;52.538;13.400;2023-02-15T04:15:49;46.53;;;22.90;;
2111;SDS011;1062;52.538;13.400;2023-02-15T04:18:30;55.23;;;25.80;;
2111;SDS011;1062;52.538;13.400;2023-02-15T04:21:23;50.67;;;23.30;;
2111;SDS011;1062;52.538;13.400;2023-02-15T04:24:08;57.27;;;26.03;;
2111;SDS011;1062;52.538;13.400;2023-02-15T04:26:53;47.00;;;23.67;;
2111;SDS011;1062;52.538;13.400;2023-02-15T04:29:20;49.33;;;24.70;;
2111;SDS011;1062;52.538;13.400;2023-02-15T04:31:46;48.87;;;24.83;;
2111;SDS011;1062;52.538;13.400;2023-02-15T04:34:12;54.20;;;24.40;;
2111;SDS011;1062;52.538;13.400;2023-02-15T04:36:38;51.70;;;24.60;;
2111;SDS011;1062;52.538;13.400;2023-02-15T04:39:05;59.60;;;26.80;;
2111;SDS011;1062;52.538;13.400;2023-02-15T04:41:31;50.17;;;24.90;;
2111;SDS011;1062;52.538;13.400;2023-02-15T04:43:57;54.00;;;24.13;;
2111;SDS011;1062;52.538;13.400;2023-02-15T04:46:24;55.43;;;26.77;;
2111;SDS011;1062;52.538;13.400;2023-02-15T04:48:50;46.27;;;24.07;;
2111;SDS011;1062;52.538;13.400;2023-02-15T04:51:15;44.90;;;21.00;;
2111;SDS011;1062;52.538;13.400;2023-02-15T04:53:41;47.20;;;25.47;;
2111;SDS011;1062;52.538;13.400;2023-02-15T04:56:07;46.37;;;25.83;;
2111;SDS011;1062;52.538;13.400;2023-02-15T04:58:32;48.13;;;25.70;;
2111;SDS011;1062;52.538;13.400;2023-02-15T05:00:58;49.63;;;22.93;;
2111;SDS011;1062;52.538;13.400;2023-02-15T05:03:24;39.27;;;20.33;;
2111;SDS011;1062;52.538;13.400;2023-02-15T05:05:50;46.70;;;20.47;;
2111;SDS011;1062;52.538;13.400;2023-02-15T05:08:16;46.00;;;21.93;;
2111;SDS011;1062;52.538;13.400;2023-02-15T05:10:42;43.83;;;20.13;;
2111;SDS011;1062;52.538;13.400;2023-02-15T05:13:07;56.50;;;24.00;;
2111;SDS011;1062;52.538;13.400;2023-02-15T05:15:33;47.20;;;22.70;;
2111;SDS011;1062;52.538;13.400;2023-02-15T05:17:59;49.97;;;24.97;;
2111;SDS011;1062;52.538;13.400;2023-02-15T05:20:24;48.47;;;22.70;;
2111;SDS011;1062;52.538;13.400;2023-02-15T05:22:53;35.93;;;22.80;;
2111;SDS011;1062;52.538;13.400;2023-02-15T05:25:19;43.23;;;21.80;;
2111;SDS011;1062;52.538;13.400;2023-02-15T05:28:03;46.40;;;21.10;;
2111;SDS011;1062;52.538;13.400;2023-02-15T05:30:44;42.40;;;19.47;;
2111;SDS011;1062;52.538;13.400;2023-02-15T05:33:12;41.90;;;21.77;;
2111;SDS011;1062;52.538;13.400;2023-02-15T05:35:38;48.30;;;24.30;;
2111;SDS011;1062;52.538;13.400;2023-02-15T05:38:03;43.37;;;20.97;;
2111;SDS011;1062;52.538;13.400;2023-02-15T05:40:29;45.17;;;19.70;;
2111;SDS011;1062;52.538;13.400;2023-02-15T05:42:55;50.10;;;23.00;;
2111;SDS011;1062;52.538;13.400;2023-02-15T05:45:21;53.10;;;25.27;;
2111;SDS011;1062;52.538;13.400;2023-02-15T05:47:47;54.70;;;21.70;;
2111;SDS011;1062;52.538;13.400;2023-02-15T05:50:13;44.83;;;20.87;;
2111;SDS011;1062;52.538;13.400;2023-02-15T05:52:38;49.20;;;21.10;;
2111;SDS011;1062;52.538;13.400;2023-02-15T05:55:04;42.40;;;19.17;;
2111;SDS011;1062;52.538;13.400;2023-02-15T05:57:31;40.17;;;20.47;;
2111;SDS011;1062;52.538;13.400;2023-02-15T05:59:56;52.10;;;22.77;;
2111;SDS011;1062;52.538;13.400;2023-02-15T06:02:22;45.43;;;22.50;;
2111;SDS011;1062;52.538;13.400;2023-02-15T06:04:47;44.97;;;20.47;;
2111;SDS011;1062;52.538;13.400;2023-02-15T06:07:13;49.20;;;21.53;;
2111;SDS011;1062;52.538;13.400;2023-02-15T06:09:38;54.60;;;25.37;;
2111;SDS011;1062;52.538;13.400;2023-02-15T06:12:04;52.53;;;23.80;;
2111;SDS011;1062;52.538;13.400;2023-02-15T06:14:30;51.77;;;25.13;;
2111;SDS011;1062;52.538;13.400;2023-02-15T06:16:56;51.27;;;21.80;;
2111;SDS011;1062;52.538;13.400;2023-02-15T06:19:21;54.40;;;24.27;;
2111;SDS011;1062;52.538;13.400;2023-02-15T06:21:47;48.93;;;20.30;;
2111;SDS011;1062;52.538;13.400;2023-02-15T06:24:13;52.80;;;22.10;;
2111;SDS011;1062;52.538;13.400;2023-02-15T06:26:39;47.37;;;22.43;;
2111;SDS011;1062;52.538;13.400;2023-02-15T06:29:04;57.13;;;24.17;;
2111;SDS011;1062;52.538;13.400;2023-02-15T06:31:30;53.20;;;22.27;;
2111;SDS011;1062;52.538;13.400;2023-02-15T06:33:56;61.23;;;24.70;;
2111;SDS011;1062;52.538;13.400;2023-02-15T06:36:26;54.30;;;24.93;;
2111;SDS011;1062;52.538;13.400;2023-02-15T06:38:53;48.90;;;24.30;;
2111;SDS011;1062;52.538;13.400;2023-02-15T06:41:19;62.40;;;24.73;;
2111;SDS011;1062;52.538;13.400;2023-02-15T06:43:45;47.23;;;22.43;;
2111;SDS011;1062;52.538;13.400;2023-02-15T06:46:10;57.93;;;24.37;;
2111;SDS011;1062;52.538;13.400;2023-02-15T06:48:36;60.17;;;26.10;;
2111;SDS011;1062;52.538;13.400;2023-02-15T06:51:01;53.80;;;21.87;;
2111;SDS011;1062;52.538;13.400;2023-02-15T06:53:27;59.47;;;25.10;;
2111;SDS011;1062;52.538;13.400;2023-02-15T06:55:59;47.83;;;23.07;;
2111;SDS011;1062;52.538;13.400;2023-02-15T06:58:31;47.90;;;22.37;;
2111;SDS011;1062;52.538;13.400;2023-02-15T07:01:00;59.27;;;26.07;;
2111;SDS011;1062;52.538;13.400;2023-02-15T07:03:26;50.27;;;22.30;;
2111;SDS011;1062;52.538;13.400;2023-02-15T07:05:54;43.37;;;23.20;;
2111;SDS011;1062;52.538;13.400;2023-02-15T07:08:21;51.20;;;20.90;;
2111;SDS011;1062;52.538;13.400;2023-02-15T07:10:48;53.30;;;26.07;;
2111;SDS011;1062;52.538;13.400;2023-02-15T07:13:14;54.30;;;23.07;;
2111;SDS011;1062;52.538;13.400;2023-02-15T07:15:40;68.17;;;27.60;;
2111;SDS011;1062;52.538;13.400;2023-02-15T07:18:06;65.93;;;24.63;;
2111;SDS011;1062;52.538;13.400;2023-02-15T07:20:31;73.23;;;28.40;;
2111;SDS011;1062;52.538;13.400;2023-02-15T07:23:00;67.97;;;24.10;;
2111;SDS011;1062;52.538;13.400;2023-02-15T07:25:26;66.53;;;21.70;;
2111;SDS011;1062;52.538;13.400;2023-02-15T07:27:58;58.63;;;23.90;;
2111;SDS011;1062;52.538;13.400;2023-02-15T07:30:25;46.47;;;24.80;;
2111;SDS011;1062;52.538;13.400;2023-02-15T07:32:54;60.97;;;27.60;;
2111;SDS011;1062;52.538;13.400;2023-02-15T07:35:51;62.13;;;25.00;;
2111;SDS011;1062;52.538;13.400;2023-02-15T07:38:19;53.03;;;27.47;;
2111;SDS011;1062;52.538;13.400;2023-02-15T07:40:45;69.20;;;30.23;;
2111;SDS011;1062;52.538;13.400;2023-02-15T07:43:11;61.53;;;23.63;;
2111;SDS011;1062;52.538;13.400;2023-02-15T07:45:37;59.17;;;26.60;;
2111;SDS011;1062;52.538;13.400;2023-02-15T07:48:03;57.73;;;24.50;;
2111;SDS011;1062;52.538;13.400;2023-02-15T07:50:29;69.60;;;28.57;;
2111;SDS011;1062;52.538;13.400;2023-02-15T07:52:55;48.90;;;22.37;;
2111;SDS011;1062;52.538;13.400;2023-02-15T07:55:22;47.40;;;22.80;;
2111;SDS011;1062;52.538;13.400;2023-02-15T07:57:49;64.03;;;21.00;;
2111;SDS011;1062;52.538;13.400;2023-02-15T08:00:16;55.23;;;26.90;;
2111;SDS011;1062;52.538;13.400;2023-02-15T08:02:49;54.30;;;22.77;;
2111;SDS011;1062;52.538;13.400;2023-02-15T08:05:36;55.87;;;26.23;;
2111;SDS011;1062;52.538;13.400;2023-02-15T08:08:02;60.47;;;24.90;;
2111;SDS011;1062;52.538;13.400;2023-02-15T08:10:28;63.03;;;24.87;;
2111;SDS011;1062;52.538;13.400;2023-02-15T08:13:13;55.47;;;24.67;;
2111;SDS011;1062;52.538;13.400;2023-02-15T08:15:38;60.13;;;26.27;;
2111;SDS011;1062;52.538;13.400;2023-02-15T08:18:04;44.60;;;26.13;;
2111;SDS011;1062;52.538;13.400;2023-02-15T08:20:30;59.10;;;25.03;;
2111;SDS011;1062;52.538;13.400;2023-02-15T08:22:56;63.80;;;23.00;;
2111;SDS011;1062;52.538;13.400;2023-02-15T08:25:21;59.23;;;26.47;;
2111;SDS011;1062;52.538;13.400;2023-02-15T08:27:49;70.13;;;27.93;;
2111;SDS011;1062;52.538;13.400;2023-02-15T08:30:15;54.07;;;25.47;;
2111;SDS011;1062;52.538;13.400;2023-02-15T08:32:41;71.33;;;28.93;;
2111;SDS011;1062;52.538;13.400;2023-02-15T08:35:06;44.67;;;22.40;;
2111;SDS011;1062;52.538;13.400;2023-02-15T08:37:32;62.73;;;24.60;;
2111;SDS011;1062;52.538;13.400;2023-02-15T08:39:57;64.80;;;27.70;;
2111;SDS011;1062;52.538;13.400;2023-02-15T08:42:23;48.60;;;22.47;;
2111;SDS011;1062;52.538;13.400;2023-02-15T08:44:49;60.10;;;24.40;;
2111;SDS011;1062;52.538;13.400;2023-02-15T08:47:16;58.27;;;22.53;;
2111;SDS011;1062;52.538;13.400;2023-02-15T08:49:42;45.37;;;23.03;;
2111;SDS011;1062;52.538;13.400;2023-02-15T08:52:07;48.20;;;23.97;;
2111;SDS011;1062;52.538;13.400;2023-02-15T08:54:33;55.20;;;25.67;;
2111;SDS011;1062;52.538;13.400;2023-02-15T08:56:58;52.47;;;22.60;;
2111;SDS011;1062;52.538;13.400;2023-02-15T08:59:24;45.73;;;21.33;;
2111;SDS011;1062;52.538;13.400;2023-02-15T09:01:51;44.23;;;22.03;;
2111;SDS011;1062;52.538;13.400;2023-02-15T09:04:18;46.30;;;22.87;;
2111;SDS011;1062;52.538;13.400;2023-02-15T09:06:45;49.73;;;22.90;;
2111;SDS011;1062;52.538;13.400;2023-02-15T09:09:12;58.00;;;23.93;;
2111;SDS011;1062;52.538;13.400;2023-02-15T09:11:39;42.30;;;19.47;;
2111;SDS011;1062;52.538;13.400;2023-02-15T09:14:10;35.47;;;21.40;;
2111;SDS011;1062;52.538;13.400;2023-02-15T09:16:41;41.70;;;19.80;;
2111;SDS011;1062;52.538;13.400;2023-02-15T09:19:11;40.47;;;19.93;;
2111;SDS011;1062;52.538;13.400;2023-02-15T09:21:37;36.70;;;18.20;;
2111;SDS011;1062;52.538;13.400;2023-02-15T09:24:04;34.67;;;18.37;;
2111;SDS011;1062;52.538;13.400;2023-02-15T09:26:33;30.53;;;17.70;;
2111;SDS011;1062;52.538;13.400;2023-02-15T09:29:01;40.50;;;20.10;;
2111;SDS011;1062;52.538;13.400;2023-02-15T09:31:32;28.20;;;17.40;;
2111;SDS011;1062;52.538;13.400;2023-02-15T09:34:01;34.10;;;18.50;;
2111;SDS011;1062;52.538;13.400;2023-02-15T09:36:28;38.37;;;22.60;;
2111;SDS011;1062;52.538;13.400;2023-02-15T09:38:57;30.00;;;18.20;;
2111;SDS011;1062;52.538;13.400;2023-02-15T09:52:30;28.63;;;16.07;;
2111;SDS011;1062;52.538;13.400;2023-02-15T10:10:43;21.83;;;14.70;;
2111;SDS011;1062;52.538;13.400;2023-02-15T10:16:39;23.90;;;15.63;;
2111;SDS011;1062;52.538;13.400;2023-02-15T10:27:39;22.73;;;14.50;;
2111;SDS011;1062;52.538;13.400;2023-02-15T10:32:44;31.60;;;16.63;;
2111;SDS011;1062;52.538;13.400;2023-02-15T10:35:46;29.03;;;14.90;;
2111;SDS011;1062;52.538;13.400;2023-02-15T10:52:32;25.53;;;13.93;;
2111;SDS011;1062;52.538;13.400;2023-02-15T11:03:55;32.47;;;19.10;;
2111;SDS011;1062;52.538;13.400;2023-02-15T11:06:29;25.20;;;16.10;;
2111;SDS011;1062;52.538;13.400;2023-02-15T11:08:57;31.90;;;16.03;;
2111;SDS011;1062;52.538;13.400;2023-02-15T11:11:31;28.87;;;16.20;;
2111;SDS011;1062;52.538;13.400;2023-02-15T11:14:02;34.50;;;18.53;;
2111;SDS011;1062;52.538;13.400;2023-02-15T11:16:34;29.80;;;15.33;;
2111;SDS011;1062;52.538;13.400;2023-02-15T11:19:06;30.70;;;17.77;;
2111;SDS011;1062;52.538;13.400;2023-02-15T11:21:39;26.97;;;17.03;;
2111;SDS011;1062;52.538;13.400;2023-02-15T11:24:14;29.83;;;16.47;;
2111;SDS011;1062;52.538;13.400;2023-02-15T11:29:34;23.20;;;15.17;;
2111;SDS011;1062;52.538;13.400;2023-02-15T11:32:12;27.90;;;14.67;;
2111;SDS011;1062;52.538;13.400;2023-02-15T11:34:49;28.10;;;15.50;;
2111;SDS011;1062;52.538;13.400;2023-02-15T11:40:33;29.37;;;15.97;;
2111;SDS011;1062;52.538;13.400;2023-02-15T11:43:31;27.83;;;16.77;;
2111;SDS011;1062;52.538;13.400;2023-02-15T11:46:12;29.00;;;14.60;;
2111;SDS011;1062;52.538;13.400;2023-02-15T11:48:40;26.13;;;17.40;;
2111;SDS011;1062;52.538;13.400;2023-02-15T11:51:17;25.87;;;14.50;;
2111;SDS011;1062;52.538;13.400;2023-02-15T11:53:45;31.20;;;19.13;;
2111;SDS011;1062;52.538;13.400;2023-02-15T11:56:15;30.03;;;18.03;;
2111;SDS011;1062;52.538;13.400;2023-02-15T11:58:44;37.03;;;16.27;;
2111;SDS011;1062;52.538;13.400;2023-02-15T12:03:51;27.13;;;14.20;;
2111;SDS011;1062;52.538;13.400;2023-02-15T12:06:32;25.70;;;14.97;;
2111;SDS011;1062;52.538;13.400;2023-02-15T12:11:41;28.70;;;14.87;;
2111;SDS011;1062;52.538;13.400;2023-02-15T12:14:07;24.83;;;14.60;;
2111;SDS011;1062;52.538;13.400;2023-02-15T12:16:42;24.43;;;15.27;;
2111;SDS011;1062;52.538;13.400;2023-02-15T12:21:49;24.27;;;15.80;;
2111;SDS011;1062;52.538;13.400;2023-02-15T12:26:45;22.77;;;12.87;;
2111;SDS011;1062;52.538;13.400;2023-02-15T12:29:50;21.20;;;14.13;;
2111;SDS011;1062;52.538;13.400;2023-02-15T12:32:19;25.90;;;14.53;;
2111;SDS011;1062;52.538;13.400;2023-02-15T12:34:50;27.97;;;15.90;;
2111;SDS011;1062;52.538;13.400;2023-02-15T12:37:21;25.83;;;14.67;;
2111;SDS011;1062;52.538;13.400;2023-02-15T12:39:51;28.87;;;15.47;;
2111;SDS011;1062;52.538;13.400;2023-02-15T12:42:22;28.37;;;16.77;;
2111;SDS011;1062;52.538;13.400;2023-02-15T12:44:53;28.50;;;15.30;;
2111;SDS011;1062;52.538;13.400;2023-02-15T12:47:19;25.40;;;16.03;;
2111;SDS011;1062;52.538;13.400;2023-02-15T12:50:03;26.77;;;16.77;;
2111;SDS011;1062;52.538;13.400;2023-02-15T12:52:29;25.17;;;15.77;;
2111;SDS011;1062;52.538;13.400;2023-02-15T12:54:54;21.97;;;14.30;;
2111;SDS011;1062;52.538;13.400;2023-02-15T12:57:34;23.77;;;14.60;;
2111;SDS011;1062;52.538;13.400;2023-02-15T13:02:34;23.30;;;15.43;;
2111;SDS011;1062;52.538;13.400;2023-02-15T13:05:13;27.60;;;14.37;;
2111;SDS011;1062;52.538;13.400;2023-02-15T13:08:02;26.07;;;14.53;;
2111;SDS011;1062;52.538;13.400;2023-02-15T13:10:37;22.20;;;15.40;;
2111;SDS011;1062;52.538;13.400;2023-02-15T13:13:18;23.30;;;13.93;;
2111;SDS011;1062;52.538;13.400;2023-02-15T13:15:48;24.53;;;15.67;;
2111;SDS011;1062;52.538;13.400;2023-02-15T13:18:17;21.70;;;15.73;;
2111;SDS011;1062;52.538;13.400;2023-02-15T13:20:53;22.70;;;14.20;;
2111;SDS011;1062;52.538;13.400;2023-02-15T13:23:29;27.10;;;14.97;;
2111;SDS011;1062;52.538;13.400;2023-02-15T13:25:58;24.97;;;15.77;;
2111;SDS011;1062;52.538;13.400;2023-02-15T13:28:44;18.60;;;13.00;;
2111;SDS011;1062;52.538;13.400;2023-02-15T13:31:13;26.23;;;16.97;;
2111;SDS011;1062;52.538;13.400;2023-02-15T13:33:43;28.53;;;14.50;;
2111;SDS011;1062;52.538;13.400;2023-02-15T13:36:56;20.03;;;14.13;;
2111;SDS011;1062;52.538;13.400;2023-02-15T13:42:32;23.90;;;13.87;;
2111;SDS011;1062;52.538;13.400;2023-02-15T13:58:50;23.83;;;14.57;;
2111;SDS011;1062;52.538;13.400;2023-02-15T14:19:41;23.27;;;11.77;;
2111;SDS011;1062;52.538;13.400;2023-02-15T14:22:23;20.00;;;13.50;;
2111;SDS011;1062;52.538;13.400;2023-02-15T14:27:26;18.50;;;11.80;;
2111;SDS011;1062;52.538;13.400;2023-02-15T14:30:18;22.70;;;13.70;;
2111;SDS011;1062;52.538;13.400;2023-02-15T14:32:48;19.17;;;13.70;;
2111;SDS011;1062;52.538;13.400;2023-02-15T14:35:21;21.63;;;13.60;;
2111;SDS011;1062;52.538;13.400;2023-02-15T14:43:34;24.10;;;12.70;;
2111;SDS011;1062;52.538;13.400;2023-02-15T14:46:30;20.00;;;13.90;;
2111;SDS011;1062;52.538;13.400;2023-02-15T14:51:55;24.10;;;13.80;;
2111;SDS011;1062;52.538;13.400;2023-02-15T15:04:34;21.27;;;12.93;;
2111;SDS011;1062;52.538;13.400;2023-02-15T15:07:19;21.77;;;12.20;;
2111;SDS011;1062;52.538;13.400;2023-02-15T15:10:04;16.23;;;12.37;;
2111;SDS011;1062;52.538;13.400;2023-02-15T15:17:59;18.70;;;12.20;;
2111;SDS011;1062;52.538;13.400;2023-02-15T15:20:43;21.03;;;13.70;;
2111;SDS011;1062;52.538;13.400;2023-02-15T15:25:44;20.60;;;12.90;;
2111;SDS011;1062;52.538;13.400;2023-02-15T15:46:00;24.87;;;13.60;;
2111;SDS011;1062;52.538;13.400;2023-02-15T15:50:52;20.57;;;13.03;;
2111;SDS011;1062;52.538;13.400;2023-02-15T15:53:22;32.40;;;14.67;;
2111;SDS011;1062;52.538;13.400;2023-02-15T15:55:50;20.70;;;11.97;;
2111;SDS011;1062;52.538;13.400;2023-02-15T15:58:20;22.63;;;11.97;;
2111;SDS011;1062;52.538;13.400;2023-02-15T16:00:48;23.70;;;14.77;;
2111;SDS011;1062;52.538;13.400;2023-02-15T16:05:47;19.70;;;12.57;;
2111;SDS011;1062;52.538;13.400;2023-02-15T16:08:38;20.07;;;13.60;;
2111;SDS011;1062;52.538;13.400;2023-02-15T16:11:10;19.17;;;12.90;;
2111;SDS011;1062;52.538;13.400;2023-02-15T16:13:42;20.57;;;12.10;;
2111;SDS011;1062;52.538;13.400;2023-02-15T16:16:08;17.83;;;12.23;;
2111;SDS011;1062;52.538;13.400;2023-02-15T16:18:36;25.80;;;14.90;;
2111;SDS011;1062;52.538;13.400;2023-02-15T16:21:03;16.63;;;12.97;;
2111;SDS011;1062;52.538;13.400;2023-02-15T16:28:52;25.10;;;13.57;;
2111;SDS011;1062;52.538;13.400;2023-02-15T16:31:19;24.30;;;12.37;;
2111;SDS011;1062;52.538;13.400;2023-02-15T16:33:47;19.80;;;11.53;;
2111;SDS011;1062;52.538;13.400;2023-02-15T16:36:23;24.30;;;13.23;;
2111;SDS011;1062;52.538;13.400;2023-02-15T16:41:17;22.03;;;12.93;;
2111;SDS011;1062;52.538;13.400;2023-02-15T16:43:48;25.23;;;13.23;;
2111;SDS011;1062;52.538;13.400;2023-02-15T16:46:15;22.10;;;12.90;;
2111;SDS011;1062;52.538;13.400;2023-02-15T16:48:53;23.40;;;14.43;;
2111;SDS011;1062;52.538;13.400;2023-02-15T16:51:25;18.90;;;11.97;;
2111;SDS011;1062;52.538;13.400;2023-02-15T16:53:54;21.80;;;11.80;;
2111;SDS011;1062;52.538;13.400;2023-02-15T16:56:25;20.70;;;13.40;;
2111;SDS011;1062;52.538;13.400;2023-02-15T16:58:53;18.83;;;12.00;;
2111;SDS011;1062;52.538;13.400;2023-02-15T17:01:20;18.97;;;13.13;;
2111;SDS011;1062;52.538;13.400;2023-02-15T17:03:50;21.53;;;14.37;;
2111;SDS011;1062;52.538;13.400;2023-02-15T17:06:34;24.90;;;14.20;;
2111;SDS011;1062;52.538;13.400;2023-02-15T17:09:03;22.03;;;14.27;;
2111;SDS011;1062;52.538;13.400;2023-02-15T17:11:41;24.43;;;14.43;;
2111;SDS011;1062;52.538;13.400;2023-02-15T17:19:01;20.63;;;12.50;;
2111;SDS011;1062;52.538;13.400;2023-02-15T17:21:30;23.07;;;14.47;;
2111;SDS011;1062;52.538;13.400;2023-02-15T17:24:01;19.17;;;12.27;;
2111;SDS011;1062;52.538;13.400;2023-02-15T17:26:30;23.10;;;13.87;;
2111;SDS011;1062;52.538;13.400;2023-02-15T17:29:02;20.73;;;14.47;;
2111;SDS011;1062;52.538;13.400;2023-02-15T17:31:39;17.83;;;12.40;;
2111;SDS011;1062;52.538;13.400;2023-02-15T17:34:05;20.57;;;12.63;;
2111;SDS011;1062;52.538;13.400;2023-02-15T17:36:31;23.60;;;14.57;;
2111;SDS011;1062;52.538;13.400;2023-02-15T17:41:26;21.60;;;13.67;;
2111;SDS011;1062;52.538;13.400;2023-02-15T17:43:53;16.07;;;11.60;;
2111;SDS011;1062;52.538;13.400;2023-02-15T17:46:18;22.33;;;14.20;;
2111;SDS011;1062;52.538;13.400;2023-02-15T17:48:48;23.10;;;15.23;;
2111;SDS011;1062;52.538;13.400;2023-02-15T17:51:18;24.87;;;15.60;;
2111;SDS011;1062;52.538;13.400;2023-02-15T17:53:44;22.67;;;13.70;;
2111;SDS011;1062;52.538;13.400;2023-02-15T17:56:29;20.57;;;14.23;;
2111;SDS011;1062;52.538;13.400;2023-02-15T17:58:54;18.00;;;13.70;;
2111;SDS011;1062;52.538;13.400;2023-02-15T18:01:20;25.60;;;14.03;;
2111;SDS011;1062;52.538;13.400;2023-02-15T18:04:05;20.77;;;13.97;;
2111;SDS011;1062;52.538;13.400;2023-02-15T18:06:54;24.57;;;15.30;;
2111;SDS011;1062;52.538;13.400;2023-02-15T18:09:39;23.40;;;13.73;;
2111;SDS011;1062;52.538;13.400;2023-02-15T18:12:25;25.90;;;14.13;;
2111;SDS011;1062;52.538;13.400;2023-02-15T18:14:56;23.43;;;15.50;;
2111;SDS011;1062;52.538;13.400;2023-02-15T18:17:27;24.53;;;14.93;;
2111;SDS011;1062;52.538;13.400;2023-02-15T18:20:04;23.00;;;14.63;;
2111;SDS011;1062;52.538;13.400;2023-02-15T18:22:35;33.57;;;17.70;;
2111;SDS011;1062;52.538;13.400;2023-02-15T18:25:00;28.00;;;16.77;;